sensor_id;sensor_type;location;lat;lon;timestamp;pressure;altitude;pressure_sealevel;temperature;humidity
52947;BME280;45776;40.400;17.260;2023-01-31T00:01:21;105482.53;;;13.80;100.00
52947;BME280;45776;40.400;17.260;2023-01-31T00:03:50;105464.94;;;13.78;100.00
52947;BME280;45776;40.400;17.260;2023-01-31T00:06:28;105377.28;;;13.61;100.00
52947;BME280;45776;40.400;17.260;2023-01-31T00:08:54;105261.53;;;13.39;100.00
52947;BME280;45776;40.400;17.260;2023-01-31T00:11:21;105069.31;;;13.07;100.00
52947;BME280;45776;40.400;17.260;2023-01-31T00:13:48;105177.50;;;13.23;100.00
52947;BME280;45776;40.400;17.260;2023-01-31T00:16:15;104801.22;;;12.59;100.00
52947;BME280;45776;40.400;17.260;2023-01-31T00:18:41;104889.09;;;12.72;100.00
52947;BME280;45776;40.400;17.260;2023-01-31T00:21:13;104900.44;;;12.72;100.00
52947;BME280;45776;40.400;17.260;2023-01-31T00:23:40;105068.75;;;13.01;100.00
52947;BME280;45776;40.400;17.260;2023-01-31T00:26:14;105073.31;;;13.04;100.00
52947;BME280;45776;40.400;17.260;2023-01-31T00:28:41;105295.69;;;13.43;100.00
52947;BME280;45776;40.400;17.260;2023-01-31T00:31:07;105210.25;;;13.30;100.00
52947;BME280;45776;40.400;17.260;2023-01-31T00:33:33;105430.00;;;13.67;100.00
52947;BME280;45776;40.400;17.260;2023-01-31T00:36:05;105531.59;;;13.84;100.00
52947;BME280;45776;40.400;17.260;2023-01-31T00:38:31;105732.28;;;14.19;100.00
52947;BME280;45776;40.400;17.260;2023-01-31T00:40:57;106076.50;;;14.87;100.00
52947;BME280;45776;40.400;17.260;2023-01-31T00:43:22;105826.94;;;14.45;100.00
52947;BME280;45776;40.400;17.260;2023-01-31T00:45:48;105643.03;;;14.13;100.00
52947;BME280;45776;40.400;17.260;2023-01-31T00:48:13;105865.16;;;14.53;100.00
52947;BME280;45776;40.400;17.260;2023-01-31T00:50:39;105875.91;;;14.56;100.00
52947;BME280;45776;40.400;17.260;2023-01-31T00:53:05;105414.16;;;13.74;100.00
52947;BME280;45776;40.400;17.260;2023-01-31T00:55:30;105753.91;;;14.27;100.00
52947;BME280;45776;40.400;17.260;2023-01-31T00:57:56;105507.34;;;13.85;100.00
52947;BME280;45776;40.400;17.260;2023-01-31T01:00:22;105934.56;;;14.60;100.00
52947;BME280;45776;40.400;17.260;2023-01-31T01:02:47;105790.91;;;14.41;100.00
52947;BME280;45776;40.400;17.260;2023-01-31T01:05:13;105437.78;;;13.76;100.00
52947;BME280;45776;40.400;17.260;2023-01-31T01:07:38;105385.25;;;13.62;100.00
52947;BME280;45776;40.400;17.260;2023-01-31T01:10:05;105259.69;;;13.38;100.00
52947;BME280;45776;40.400;17.260;2023-01-31T01:12:31;104897.19;;;12.75;100.00
52947;BME280;45776;40.400;17.260;2023-01-31T01:14:56;105176.28;;;13.19;100.00
52947;BME280;45776;40.400;17.260;2023-01-31T01:17:22;105196.53;;;13.22;100.00
52947;BME280;45776;40.400;17.260;2023-01-31T01:19:48;105140.97;;;13.13;100.00
52947;BME280;45776;40.400;17.260;2023-01-31T01:22:14;105132.72;;;13.08;100.00
52947;BME280;45776;40.400;17.260;2023-01-31T01:24:41;105205.88;;;13.20;100.00
52947;BME280;45776;40.400;17.260;2023-01-31T01:27:07;105144.16;;;13.10;100.00
52947;BME280;45776;40.400;17.260;2023-01-31T01:29:36;105057.47;;;12.92;100.00
52947;BME280;45776;40.400;17.260;2023-01-31T01:32:02;105269.38;;;13.31;100.00
52947;BME280;45776;40.400;17.260;2023-01-31T01:34:28;105271.03;;;13.30;100.00
52947;BME280;45776;40.400;17.260;2023-01-31T01:36:53;105293.13;;;13.34;100.00
52947;BME280;45776;40.400;17.260;2023-01-31T01:39:19;105390.38;;;13.52;100.00
52947;BME280;45776;40.400;17.260;2023-01-31T01:41:45;105404.88;;;13.59;100.00
52947;BME280;45776;40.400;17.260;2023-01-31T01:47:38;105258.47;;;13.35;100.00
52947;BME280;45776;40.400;17.260;2023-01-31T01:52:34;104998.13;;;12.88;100.00
52947;BME280;45776;40.400;17.260;2023-01-31T01:55:06;104985.88;;;12.87;100.00
52947;BME280;45776;40.400;17.260;2023-01-31T01:57:38;105429.22;;;13.68;100.00
52947;BME280;45776;40.400;17.260;2023-01-31T02:00:24;105684.28;;;14.17;100.00
52947;BME280;45776;40.400;17.260;2023-01-31T02:02:53;105250.78;;;13.45;100.00
52947;BME280;45776;40.400;17.260;2023-01-31T02:05:25;105462.59;;;13.81;100.00
52947;BME280;45776;40.400;17.260;2023-01-31T02:07:53;105528.97;;;13.93;100.00
52947;BME280;45776;40.400;17.260;2023-01-31T02:10:35;105140.13;;;13.22;100.00
52947;BME280;45776;40.400;17.260;2023-01-31T02:13:03;105140.59;;;13.18;100.00
52947;BME280;45776;40.400;17.260;2023-01-31T02:15:30;105107.91;;;13.12;100.00
52947;BME280;45776;40.400;17.260;2023-01-31T02:17:56;105058.34;;;13.01;100.00
52947;BME280;45776;40.400;17.260;2023-01-31T02:40:28;105192.91;;;13.30;100.00
52947;BME280;45776;40.400;17.260;2023-01-31T02:43:17;104877.91;;;12.73;100.00
52947;BME280;45776;40.400;17.260;2023-01-31T02:51:20;104910.06;;;12.73;100.00
52947;BME280;45776;40.400;17.260;2023-01-31T02:54:00;104991.09;;;12.87;100.00
52947;BME280;45776;40.400;17.260;2023-01-31T02:56:32;105133.00;;;13.11;100.00
52947;BME280;45776;40.400;17.260;2023-01-31T02:59:18;105382.22;;;13.57;100.00
52947;BME280;45776;40.400;17.260;2023-01-31T03:01:55;105351.56;;;13.55;100.00
52947;BME280;45776;40.400;17.260;2023-01-31T03:04:23;105247.00;;;13.33;100.00
52947;BME280;45776;40.400;17.260;2023-01-31T03:06:57;105097.94;;;13.07;100.00
52947;BME280;45776;40.400;17.260;2023-01-31T03:09:33;104929.47;;;12.77;100.00
52947;BME280;45776;40.400;17.260;2023-01-31T03:20:38;105506.63;;;13.78;100.00
52947;BME280;45776;40.400;17.260;2023-01-31T03:23:19;105507.84;;;13.81;100.00
52947;BME280;45776;40.400;17.260;2023-01-31T03:25:47;105711.44;;;14.19;100.00
52947;BME280;45776;40.400;17.260;2023-01-31T03:28:17;105519.31;;;13.92;100.00
52947;BME280;45776;40.400;17.260;2023-01-31T03:30:51;105411.56;;;13.74;100.00
52947;BME280;45776;40.400;17.260;2023-01-31T03:33:26;105305.47;;;13.54;100.00
52947;BME280;45776;40.400;17.260;2023-01-31T03:41:59;105938.59;;;14.74;100.00
52947;BME280;45776;40.400;17.260;2023-01-31T03:44:34;105912.00;;;14.78;100.00
52947;BME280;45776;40.400;17.260;2023-01-31T03:47:11;105776.56;;;14.55;100.00
52947;BME280;45776;40.400;17.260;2023-01-31T03:49:39;105636.69;;;14.20;100.00
52947;BME280;45776;40.400;17.260;2023-01-31T03:52:08;105359.06;;;13.61;100.00
52947;BME280;45776;40.400;17.260;2023-01-31T03:54:39;105446.69;;;13.69;100.00
52947;BME280;45776;40.400;17.260;2023-01-31T03:59:42;105877.47;;;14.45;100.00
52947;BME280;45776;40.400;17.260;2023-01-31T04:02:10;105864.56;;;14.47;100.00
52947;BME280;45776;40.400;17.260;2023-01-31T04:04:44;106103.69;;;14.89;100.00
52947;BME280;45776;40.400;17.260;2023-01-31T04:07:12;106195.47;;;15.09;100.00
52947;BME280;45776;40.400;17.260;2023-01-31T04:09:38;105765.28;;;14.28;100.00
52947;BME280;45776;40.400;17.260;2023-01-31T04:12:04;105444.22;;;13.70;100.00
52947;BME280;45776;40.400;17.260;2023-01-31T04:14:30;105218.97;;;13.30;100.00
52947;BME280;45776;40.400;17.260;2023-01-31T04:16:55;105289.41;;;13.40;100.00
52947;BME280;45776;40.400;17.260;2023-01-31T04:19:21;105042.41;;;12.98;100.00
52947;BME280;45776;40.400;17.260;2023-01-31T04:21:46;104979.59;;;12.85;100.00
52947;BME280;45776;40.400;17.260;2023-01-31T04:24:12;105513.81;;;13.80;100.00
52947;BME280;45776;40.400;17.260;2023-01-31T04:26:37;105257.88;;;13.37;100.00
52947;BME280;45776;40.400;17.260;2023-01-31T04:29:03;105222.38;;;13.29;100.00
52947;BME280;45776;40.400;17.260;2023-01-31T04:31:29;105044.13;;;12.98;100.00
52947;BME280;45776;40.400;17.260;2023-01-31T04:33:55;104948.88;;;12.81;100.00
52947;BME280;45776;40.400;17.260;2023-01-31T04:36:23;105081.00;;;13.02;100.00
52947;BME280;45776;40.400;17.260;2023-01-31T04:38:48;105194.06;;;13.23;100.00
52947;BME280;45776;40.400;17.260;2023-01-31T04:41:14;105371.63;;;13.56;100.00
52947;BME280;45776;40.400;17.260;2023-01-31T04:43:39;105424.78;;;13.67;100.00
52947;BME280;45776;40.400;17.260;2023-01-31T04:46:05;105538.63;;;13.85;100.00
52947;BME280;45776;40.400;17.260;2023-01-31T04:48:30;105175.81;;;13.23;100.00
52947;BME280;45776;40.400;17.260;2023-01-31T04:50:56;105350.66;;;13.54;100.00
52947;BME280;45776;40.400;17.260;2023-01-31T04:53:21;105580.47;;;13.96;100.00
52947;BME280;45776;40.400;17.260;2023-01-31T04:55:47;105836.28;;;14.43;100.00
52947;BME280;45776;40.400;17.260;2023-01-31T04:58:12;105567.91;;;14.00;100.00
52947;BME280;45776;40.400;17.260;2023-01-31T05:00:38;105548.13;;;13.94;100.00
52947;BME280;45776;40.400;17.260;2023-01-31T05:03:04;105699.47;;;14.22;100.00
52947;BME280;45776;40.400;17.260;2023-01-31T05:05:29;105599.63;;;14.05;100.00
52947;BME280;45776;40.400;17.260;2023-01-31T05:07:56;105681.66;;;14.17;100.00
52947;BME280;45776;40.400;17.260;2023-01-31T05:10:21;105360.13;;;13.63;100.00
52947;BME280;45776;40.400;17.260;2023-01-31T05:12:47;105532.03;;;13.89;100.00
52947;BME280;45776;40.400;17.260;2023-01-31T05:15:12;105578.63;;;13.95;100.00
52947;BME280;45776;40.400;17.260;2023-01-31T05:17:38;105404.56;;;13.64;100.00
52947;BME280;45776;40.400;17.260;2023-01-31T05:20:04;105318.97;;;13.50;100.00
52947;BME280;45776;40.400;17.260;2023-01-31T05:22:29;105302.25;;;13.48;100.00
52947;BME280;45776;40.400;17.260;2023-01-31T05:24:55;105189.91;;;13.25;100.00
52947;BME280;45776;40.400;17.260;2023-01-31T05:27:20;105353.25;;;13.54;100.00
52947;BME280;45776;40.400;17.260;2023-01-31T05:29:46;105393.22;;;13.64;100.00
52947;BME280;45776;40.400;17.260;2023-01-31T05:32:12;105445.44;;;13.74;100.00
52947;BME280;45776;40.400;17.260;2023-01-31T05:34:39;105437.47;;;13.72;100.00
52947;BME280;45776;40.400;17.260;2023-01-31T05:37:05;105518.84;;;13.87;100.00
52947;BME280;45776;40.400;17.260;2023-01-31T05:39:30;105601.03;;;14.01;100.00
52947;BME280;45776;40.400;17.260;2023-01-31T05:41:56;105635.66;;;14.09;100.00
52947;BME280;45776;40.400;17.260;2023-01-31T05:44:22;105926.09;;;14.62;100.00
52947;BME280;45776;40.400;17.260;2023-01-31T05:46:48;105413.41;;;13.75;100.00
52947;BME280;45776;40.400;17.260;2023-01-31T05:49:14;105482.38;;;13.87;100.00
52947;BME280;45776;40.400;17.260;2023-01-31T05:51:40;105628.16;;;14.12;100.00
52947;BME280;45776;40.400;17.260;2023-01-31T05:54:06;105621.38;;;14.14;100.00
52947;BME280;45776;40.400;17.260;2023-01-31T05:56:31;105490.19;;;13.87;100.00
52947;BME280;45776;40.400;17.260;2023-01-31T05:58:57;105256.94;;;13.46;100.00
52947;BME280;45776;40.400;17.260;2023-01-31T06:01:24;105383.09;;;13.67;100.00
52947;BME280;45776;40.400;17.260;2023-01-31T06:03:50;105542.91;;;13.94;100.00
52947;BME280;45776;40.400;17.260;2023-01-31T06:06:16;105529.72;;;13.92;100.00
52947;BME280;45776;40.400;17.260;2023-01-31T06:08:41;105528.66;;;13.90;100.00
52947;BME280;45776;40.400;17.260;2023-01-31T06:11:08;105537.38;;;13.91;100.00
52947;BME280;45776;40.400;17.260;2023-01-31T06:13:36;105356.19;;;13.57;100.00
52947;BME280;45776;40.400;17.260;2023-01-31T06:16:01;105723.09;;;14.23;100.00
52947;BME280;45776;40.400;17.260;2023-01-31T06:18:27;105326.44;;;13.55;100.00
52947;BME280;45776;40.400;17.260;2023-01-31T06:20:52;105149.47;;;13.20;100.00
52947;BME280;45776;40.400;17.260;2023-01-31T06:23:18;105203.84;;;13.26;100.00
52947;BME280;45776;40.400;17.260;2023-01-31T06:25:47;105406.09;;;13.62;100.00
52947;BME280;45776;40.400;17.260;2023-01-31T06:28:12;105559.03;;;13.90;100.00
52947;BME280;45776;40.400;17.260;2023-01-31T06:30:38;105478.72;;;13.77;100.00
52947;BME280;45776;40.400;17.260;2023-01-31T06:33:03;105300.91;;;13.43;100.00
52947;BME280;45776;40.400;17.260;2023-01-31T06:35:29;104996.28;;;12.87;100.00
52947;BME280;45776;40.400;17.260;2023-01-31T06:37:55;105251.16;;;13.31;100.00
52947;BME280;45776;40.400;17.260;2023-01-31T06:40:20;105401.25;;;13.56;100.00
52947;BME280;45776;40.400;17.260;2023-01-31T06:42:46;105126.44;;;13.06;100.00
52947;BME280;45776;40.400;17.260;2023-01-31T06:45:11;105413.31;;;13.56;100.00
52947;BME280;45776;40.400;17.260;2023-01-31T06:47:37;105181.22;;;13.16;100.00
52947;BME280;45776;40.400;17.260;2023-01-31T06:50:03;105180.16;;;13.14;100.00
52947;BME280;45776;40.400;17.260;2023-01-31T06:52:29;105429.91;;;13.56;100.00
52947;BME280;45776;40.400;17.260;2023-01-31T06:54:54;105088.25;;;12.96;100.00
52947;BME280;45776;40.400;17.260;2023-01-31T06:57:19;105093.28;;;12.94;100.00
52947;BME280;45776;40.400;17.260;2023-01-31T06:59:45;105450.88;;;13.58;100.00
52947;BME280;45776;40.400;17.260;2023-01-31T07:02:11;105298.16;;;13.32;100.00
52947;BME280;45776;40.400;17.260;2023-01-31T07:04:36;105721.72;;;14.09;100.00
52947;BME280;45776;40.400;17.260;2023-01-31T07:07:02;105356.81;;;13.46;100.00
52947;BME280;45776;40.400;17.260;2023-01-31T07:09:27;105346.09;;;13.43;100.00
52947;BME280;45776;40.400;17.260;2023-01-31T07:11:53;105561.50;;;13.79;100.00
52947;BME280;45776;40.400;17.260;2023-01-31T07:14:18;105250.72;;;13.26;100.00
52947;BME280;45776;40.400;17.260;2023-01-31T07:16:44;105191.34;;;13.13;100.00
52947;BME280;45776;40.400;17.260;2023-01-31T07:19:09;105407.66;;;13.51;100.00
52947;BME280;45776;40.400;17.260;2023-01-31T07:21:35;105412.28;;;13.54;100.00
52947;BME280;45776;40.400;17.260;2023-01-31T07:24:01;105796.88;;;14.22;100.00
52947;BME280;45776;40.400;17.260;2023-01-31T07:26:27;105532.69;;;13.78;100.00
52947;BME280;45776;40.400;17.260;2023-01-31T07:28:52;105356.69;;;13.45;100.00
52947;BME280;45776;40.400;17.260;2023-01-31T07:31:18;105130.44;;;13.02;100.00
52947;BME280;45776;40.400;17.260;2023-01-31T07:33:44;105293.44;;;13.28;100.00
52947;BME280;45776;40.400;17.260;2023-01-31T07:36:12;105502.06;;;13.66;100.00
52947;BME280;45776;40.400;17.260;2023-01-31T07:38:38;105143.47;;;13.02;100.00
52947;BME280;45776;40.400;17.260;2023-01-31T07:41:04;105514.47;;;13.69;100.00
52947;BME280;45776;40.400;17.260;2023-01-31T07:43:30;105205.13;;;13.12;100.00
52947;BME280;45776;40.400;17.260;2023-01-31T07:45:56;105395.75;;;13.45;100.00
52947;BME280;45776;40.400;17.260;2023-01-31T07:48:22;105102.66;;;12.92;100.00
52947;BME280;45776;40.400;17.260;2023-01-31T07:51:06;105287.03;;;13.24;100.00
52947;BME280;45776;40.400;17.260;2023-01-31T07:53:34;105309.97;;;13.29;100.00
52947;BME280;45776;40.400;17.260;2023-01-31T07:56:13;105596.91;;;13.77;100.00
52947;BME280;45776;40.400;17.260;2023-01-31T07:58:41;105603.34;;;13.81;100.00
52947;BME280;45776;40.400;17.260;2023-01-31T08:01:14;105397.44;;;13.44;100.00
52947;BME280;45776;40.400;17.260;2023-01-31T08:03:58;105547.56;;;13.70;100.00
52947;BME280;45776;40.400;17.260;2023-01-31T08:06:24;105619.00;;;13.81;100.00
52947;BME280;45776;40.400;17.260;2023-01-31T08:08:49;105656.25;;;13.88;100.00
52947;BME280;45776;40.400;17.260;2023-01-31T08:11:15;105886.50;;;14.31;100.00
52947;BME280;45776;40.400;17.260;2023-01-31T08:13:40;105736.28;;;14.07;100.00
52947;BME280;45776;40.400;17.260;2023-01-31T08:16:07;105787.50;;;14.15;100.00
52947;BME280;45776;40.400;17.260;2023-01-31T08:18:33;105790.44;;;14.18;100.00
52947;BME280;45776;40.400;17.260;2023-01-31T08:20:59;105751.34;;;14.10;100.00
52947;BME280;45776;40.400;17.260;2023-01-31T08:23:26;105964.81;;;14.49;100.00
52947;BME280;45776;40.400;17.260;2023-01-31T08:26:08;105719.59;;;14.05;100.00
52947;BME280;45776;40.400;17.260;2023-01-31T08:28:35;105771.25;;;14.09;100.00
52947;BME280;45776;40.400;17.260;2023-01-31T08:31:01;105385.16;;;13.43;100.00
52947;BME280;45776;40.400;17.260;2023-01-31T08:33:27;105597.22;;;13.80;100.00
52947;BME280;45776;40.400;17.260;2023-01-31T08:35:52;105456.22;;;13.60;100.00
52947;BME280;45776;40.400;17.260;2023-01-31T08:38:18;105458.22;;;13.62;100.00
52947;BME280;45776;40.400;17.260;2023-01-31T08:40:43;105497.91;;;13.68;100.00
52947;BME280;45776;40.400;17.260;2023-01-31T08:43:09;105894.63;;;14.43;100.00
52947;BME280;45776;40.400;17.260;2023-01-31T08:45:35;105351.25;;;13.61;100.00
52947;BME280;45776;40.400;17.260;2023-01-31T08:48:01;105282.84;;;13.63;100.00
52947;BME280;45776;40.400;17.260;2023-01-31T08:50:28;105269.75;;;13.53;100.00
52947;BME280;45776;40.400;17.260;2023-01-31T08:52:57;105490.38;;;13.80;100.00
52947;BME280;45776;40.400;17.260;2023-01-31T08:55:23;105821.44;;;14.42;100.00
52947;BME280;45776;40.400;17.260;2023-01-31T08:57:49;105807.94;;;14.37;100.00
52947;BME280;45776;40.400;17.260;2023-01-31T09:00:15;106074.97;;;14.80;100.00
52947;BME280;45776;40.400;17.260;2023-01-31T09:02:41;106234.78;;;15.11;100.00
52947;BME280;45776;40.400;17.260;2023-01-31T09:05:07;105892.78;;;14.42;100.00
52947;BME280;45776;40.400;17.260;2023-01-31T09:07:36;106031.28;;;14.61;100.00
52947;BME280;45776;40.400;17.260;2023-01-31T09:10:01;105826.19;;;14.19;100.00
52947;BME280;45776;40.400;17.260;2023-01-31T09:12:27;106103.34;;;14.68;100.00
52947;BME280;45776;40.400;17.260;2023-01-31T09:14:52;105919.66;;;14.41;100.00
52947;BME280;45776;40.400;17.260;2023-01-31T09:17:18;106003.47;;;14.53;100.00
52947;BME280;45776;40.400;17.260;2023-01-31T09:19:43;105749.19;;;14.06;100.00
52947;BME280;45776;40.400;17.260;2023-01-31T09:22:09;106149.13;;;14.73;100.00
52947;BME280;45776;40.400;17.260;2023-01-31T09:24:35;105794.88;;;14.11;100.00
52947;BME280;45776;40.400;17.260;2023-01-31T09:27:00;105814.53;;;14.16;100.00
52947;BME280;45776;40.400;17.260;2023-01-31T09:29:26;105727.84;;;14.01;100.00
52947;BME280;45776;40.400;17.260;2023-01-31T09:31:53;106042.94;;;14.56;100.00
52947;BME280;45776;40.400;17.260;2023-01-31T09:34:19;106085.06;;;14.68;100.00
52947;BME280;45776;40.400;17.260;2023-01-31T09:36:44;106192.63;;;14.90;100.00
52947;BME280;45776;40.400;17.260;2023-01-31T09:39:11;106866.81;;;16.20;100.00
52947;BME280;45776;40.400;17.260;2023-01-31T09:45:00;106455.97;;;15.53;100.00
52947;BME280;45776;40.400;17.260;2023-01-31T09:47:35;106144.28;;;14.94;100.00
52947;BME280;45776;40.400;17.260;2023-01-31T09:50:11;106330.41;;;15.18;100.00
52947;BME280;45776;40.400;17.260;2023-01-31T09:52:42;106063.44;;;14.69;100.00
52947;BME280;45776;40.400;17.260;2023-01-31T09:55:49;106252.13;;;15.02;100.00
52947;BME280;45776;40.400;17.260;2023-01-31T09:58:27;106511.66;;;15.52;100.00
52947;BME280;45776;40.400;17.260;2023-01-31T10:01:17;105931.00;;;14.59;100.00
52947;BME280;45776;40.400;17.260;2023-01-31T10:06:55;106121.53;;;15.10;100.00
52947;BME280;45776;40.400;17.260;2023-01-31T10:09:28;106248.22;;;15.49;100.00
52947;BME280;45776;40.400;17.260;2023-01-31T10:12:14;106087.56;;;15.28;92.93
52947;BME280;45776;40.400;17.260;2023-01-31T10:19:58;106072.97;;;15.30;70.34
52947;BME280;45776;40.400;17.260;2023-01-31T10:22:44;106049.00;;;15.34;66.18
52947;BME280;45776;40.400;17.260;2023-01-31T10:28:39;106031.47;;;15.24;64.72
52947;BME280;45776;40.400;17.260;2023-01-31T10:31:28;106284.53;;;15.64;67.43
52947;BME280;45776;40.400;17.260;2023-01-31T10:39:19;106017.50;;;15.15;67.21
52947;BME280;45776;40.400;17.260;2023-01-31T10:44:52;106411.22;;;15.92;65.92
52947;BME280;45776;40.400;17.260;2023-01-31T10:47:20;106643.31;;;16.35;64.52
52947;BME280;45776;40.400;17.260;2023-01-31T10:49:48;106044.84;;;15.36;60.51
52947;BME280;45776;40.400;17.260;2023-01-31T10:57:30;105414.25;;;14.40;53.42
52947;BME280;45776;40.400;17.260;2023-01-31T10:59:56;105988.91;;;15.34;53.90
52947;BME280;45776;40.400;17.260;2023-01-31T11:02:24;105910.69;;;15.18;53.86
52947;BME280;45776;40.400;17.260;2023-01-31T11:04:56;105594.34;;;14.68;52.70
52947;BME280;45776;40.400;17.260;2023-01-31T11:07:22;105706.91;;;14.90;52.33
52947;BME280;45776;40.400;17.260;2023-01-31T11:09:52;105444.44;;;14.47;51.91
52947;BME280;45776;40.400;17.260;2023-01-31T11:12:19;105574.53;;;14.70;51.78
52947;BME280;45776;40.400;17.260;2023-01-31T11:15:04;105572.31;;;14.75;51.01
52947;BME280;45776;40.400;17.260;2023-01-31T11:17:32;105858.41;;;15.27;51.47
52947;BME280;45776;40.400;17.260;2023-01-31T11:20:00;105619.53;;;14.87;50.77
52947;BME280;45776;40.400;17.260;2023-01-31T11:22:31;105494.38;;;14.60;51.55
52947;BME280;45776;40.400;17.260;2023-01-31T11:24:58;105689.38;;;14.98;51.50
52947;BME280;45776;40.400;17.260;2023-01-31T11:27:28;105754.34;;;15.04;52.75
52947;BME280;45776;40.400;17.260;2023-01-31T11:29:58;105970.91;;;15.37;53.24
52947;BME280;45776;40.400;17.260;2023-01-31T11:32:27;105601.63;;;14.81;52.02
52947;BME280;45776;40.400;17.260;2023-01-31T11:35:00;105759.56;;;15.04;53.39
52947;BME280;45776;40.400;17.260;2023-01-31T11:37:27;105601.47;;;14.79;52.26
52947;BME280;45776;40.400;17.260;2023-01-31T11:39:59;105277.84;;;14.22;51.89
52947;BME280;45776;40.400;17.260;2023-01-31T11:42:25;105530.28;;;14.63;52.42
52947;BME280;45776;40.400;17.260;2023-01-31T11:45:17;105476.41;;;14.63;51.41
52947;BME280;45776;40.400;17.260;2023-01-31T11:47:57;105855.19;;;15.29;51.12
52947;BME280;45776;40.400;17.260;2023-01-31T11:53:21;105529.75;;;14.85;48.95
52947;BME280;45776;40.400;17.260;2023-01-31T11:55:49;105442.94;;;14.68;49.08
52947;BME280;45776;40.400;17.260;2023-01-31T12:00:53;106027.22;;;15.70;49.56
52947;BME280;45776;40.400;17.260;2023-01-31T12:03:20;106314.59;;;16.20;49.70
52947;BME280;45776;40.400;17.260;2023-01-31T12:05:51;106383.56;;;16.38;49.60
52947;BME280;45776;40.400;17.260;2023-01-31T12:08:35;105574.47;;;14.98;48.52
52947;BME280;45776;40.400;17.260;2023-01-31T12:13:30;105290.16;;;14.72;43.43
52947;BME280;45776;40.400;17.260;2023-01-31T12:16:03;105728.53;;;15.54;43.82
52947;BME280;45776;40.400;17.260;2023-01-31T12:26:48;105604.28;;;15.38;43.27
52947;BME280;45776;40.400;17.260;2023-01-31T12:32:15;105383.38;;;15.02;43.79
52947;BME280;45776;40.400;17.260;2023-01-31T12:37:45;105679.72;;;15.44;45.27
52947;BME280;45776;40.400;17.260;2023-01-31T12:43:01;106094.47;;;16.17;45.69
52947;BME280;45776;40.400;17.260;2023-01-31T12:45:51;105816.22;;;15.69;45.19
52947;BME280;45776;40.400;17.260;2023-01-31T12:48:30;105552.31;;;15.22;44.81
52947;BME280;45776;40.400;17.260;2023-01-31T12:51:24;106070.78;;;16.15;45.10
52947;BME280;45776;40.400;17.260;2023-01-31T12:56:45;106051.06;;;16.19;44.07
52947;BME280;45776;40.400;17.260;2023-01-31T13:02:26;106131.06;;;16.34;45.10
52947;BME280;45776;40.400;17.260;2023-01-31T13:12:58;106247.03;;;16.70;42.26
52947;BME280;45776;40.400;17.260;2023-01-31T13:15:38;105845.00;;;15.97;43.05
52947;BME280;45776;40.400;17.260;2023-01-31T13:18:05;105916.00;;;16.11;42.47
52947;BME280;45776;40.400;17.260;2023-01-31T13:20:40;106295.19;;;16.81;42.59
52947;BME280;45776;40.400;17.260;2023-01-31T13:23:19;105950.44;;;16.15;42.88
52947;BME280;45776;40.400;17.260;2023-01-31T13:25:53;105944.44;;;16.16;42.52
52947;BME280;45776;40.400;17.260;2023-01-31T13:28:24;105613.81;;;15.57;42.71
52947;BME280;45776;40.400;17.260;2023-01-31T13:30:57;106485.31;;;17.14;41.72
52947;BME280;45776;40.400;17.260;2023-01-31T13:33:45;105775.63;;;15.92;41.85
52947;BME280;45776;40.400;17.260;2023-01-31T13:38:52;105988.28;;;16.19;43.71
52947;BME280;45776;40.400;17.260;2023-01-31T13:41:24;106263.22;;;16.66;43.39
52947;BME280;45776;40.400;17.260;2023-01-31T13:43:50;106318.31;;;16.76;43.67
52947;BME280;45776;40.400;17.260;2023-01-31T13:46:20;106309.84;;;16.79;42.88
52947;BME280;45776;40.400;17.260;2023-01-31T13:56:59;105836.72;;;15.92;43.53
52947;BME280;45776;40.400;17.260;2023-01-31T13:59:28;106518.78;;;17.08;44.48
52947;BME280;45776;40.400;17.260;2023-01-31T14:01:58;106036.38;;;16.30;43.22
52947;BME280;45776;40.400;17.260;2023-01-31T14:04:44;105718.38;;;15.76;42.81
52947;BME280;45776;40.400;17.260;2023-01-31T14:22:28;105774.72;;;15.91;42.84
52947;BME280;45776;40.400;17.260;2023-01-31T14:35:23;105358.03;;;15.11;43.89
52947;BME280;45776;40.400;17.260;2023-01-31T14:40:54;105642.56;;;15.57;44.37
52947;BME280;45776;40.400;17.260;2023-01-31T14:43:44;105911.53;;;16.09;43.97
52947;BME280;45776;40.400;17.260;2023-01-31T14:46:40;105881.41;;;16.04;43.90
52947;BME280;45776;40.400;17.260;2023-01-31T14:57:32;105349.13;;;14.99;45.23
52947;BME280;45776;40.400;17.260;2023-01-31T15:00:14;105693.56;;;15.62;44.81
52947;BME280;45776;40.400;17.260;2023-01-31T15:02:54;105848.44;;;15.87;44.32
52947;BME280;45776;40.400;17.260;2023-01-31T15:08:29;106167.50;;;16.42;45.83
52947;BME280;45776;40.400;17.260;2023-01-31T15:11:03;105747.34;;;15.69;45.16
52947;BME280;45776;40.400;17.260;2023-01-31T15:18:58;105251.16;;;14.83;44.06
52947;BME280;45776;40.400;17.260;2023-01-31T15:21:30;105220.09;;;14.76;44.36
52947;BME280;45776;40.400;17.260;2023-01-31T15:23:58;105610.22;;;15.46;44.29
52947;BME280;45776;40.400;17.260;2023-01-31T15:26:27;105380.22;;;15.06;44.57
52947;BME280;45776;40.400;17.260;2023-01-31T15:28:53;105730.47;;;15.65;44.88
52947;BME280;45776;40.400;17.260;2023-01-31T15:31:40;105180.13;;;14.67;44.76
52947;BME280;45776;40.400;17.260;2023-01-31T15:34:26;105035.97;;;14.40;44.98
52947;BME280;45776;40.400;17.260;2023-01-31T15:39:51;105221.50;;;14.73;45.00